Time;durP1;ratioP1;P1;durP2;ratioP2;P2;SDS_P1;SDS_P2;PMS_P1;PMS_P2;Temp;Humidity;BMP_temperature;BMP_pressure;BME280_temperature;BME280_humidity;BME280_pressure;Samples;Min_cycle;Max_cycle;Signal;HPM_P1;HPM_P2
2021/04/01 00:00:29;;;;;;;52.85;27.40;;;;;;;14.39;51.69;100366.94;5051767;27;101604;-88
2021/04/01 00:02:55;;;;;;;49.00;27.65;;;;;;;14.59;51.05;100368.63;5040165;27;99324;-88
2021/04/01 00:05:24;;;;;;;50.50;27.80;;;;;;;14.66;51.31;100362.97;5042701;27;97002;-89
2021/04/01 00:07:49;;;;;;;53.20;28.23;;;;;;;14.54;51.48;100355.63;5052238;27;96854;-89
2021/04/01 00:10:18;;;;;;;57.63;29.20;;;;;;;14.50;51.57;100352.28;5070725;27;98306;-88
2021/04/01 00:12:43;;;;;;;49.00;27.38;;;;;;;14.49;51.49;100353.22;5043221;27;101183;-86
2021/04/01 00:15:11;;;;;;;59.80;28.17;;;;;;;14.50;51.10;100347.00;5060174;27;98094;-89
2021/04/01 00:17:37;;;;;;;55.15;27.70;;;;;;;14.43;51.28;100348.25;5040555;27;97264;-90
2021/04/01 00:20:06;;;;;;;61.60;27.63;;;;;;;14.46;51.45;100341.97;5058304;27;101354;-87
2021/04/01 00:22:31;;;;;;;50.65;26.83;;;;;;;14.38;51.28;100336.19;5060637;27;98026;-88
2021/04/01 00:24:57;;;;;;;54.22;28.50;;;;;;;14.27;52.03;100339.34;5080818;27;97173;-88
2021/04/01 00:27:22;;;;;;;54.03;29.35;;;;;;;14.09;52.05;100337.63;5039444;27;97621;-89
2021/04/01 00:29:48;;;;;;;55.92;29.63;;;;;;;14.08;52.11;100333.25;5055192;27;101344;-88
2021/04/01 00:32:13;;;;;;;53.85;28.17;;;;;;;14.04;52.40;100336.03;5061558;27;99520;-86
2021/04/01 00:34:39;;;;;;;50.05;28.88;;;;;;;14.16;52.38;100331.09;5079077;27;97081;-88
2021/04/01 00:37:04;;;;;;;57.00;31.08;;;;;;;14.14;52.08;100327.69;5095343;27;96816;-88
2021/04/01 00:39:30;;;;;;;52.72;29.77;;;;;;;14.10;52.51;100324.31;5054083;27;101478;-88
2021/04/01 00:41:56;;;;;;;65.15;29.65;;;;;;;14.04;52.60;100322.84;5056239;27;101244;-87
2021/04/01 00:44:21;;;;;;;54.97;28.52;;;;;;;14.01;52.66;100319.50;5054540;27;96726;-88
2021/04/01 00:46:48;;;;;;;60.20;28.58;;;;;;;14.00;52.30;100315.16;5074140;27;96951;-88
2021/04/01 00:49:14;;;;;;;50.55;27.85;;;;;;;13.96;52.77;100319.75;5072279;27;98264;-89
2021/04/01 00:51:40;;;;;;;61.60;32.20;;;;;;;13.93;52.44;100316.38;5053248;27;101641;-89
2021/04/01 00:54:06;;;;;;;63.42;30.65;;;;;;;13.76;52.54;100309.28;5051731;27;96734;-88
2021/04/01 00:56:31;;;;;;;53.55;30.33;;;;;;;13.87;52.53;100311.38;5053187;27;96876;-89
2021/04/01 00:58:57;;;;;;;60.00;31.80;;;;;;;13.79;52.90;100311.78;5050948;27;100269;-88
2021/04/01 01:04:09;;;;;;;57.08;32.65;;;;;;;13.75;53.29;100304.91;5071379;27;96671;-88
2021/04/01 01:06:34;;;;;;;62.20;32.78;;;;;;;13.72;53.17;100299.78;5039650;27;97171;-88
2021/04/01 01:09:01;;;;;;;56.60;32.65;;;;;;;13.59;53.88;100299.50;5071606;27;100941;-82
2021/04/01 01:11:28;;;;;;;61.00;36.10;;;;;;;13.50;53.97;100302.59;5052177;27;101445;-88
2021/04/01 01:13:54;;;;;;;59.08;32.03;;;;;;;13.50;53.79;100302.59;5054668;27;97352;-88
2021/04/01 01:16:19;;;;;;;65.03;34.30;;;;;;;13.53;54.09;100297.16;5055826;27;97689;-88
2021/04/01 01:18:45;;;;;;;62.72;32.88;;;;;;;13.42;54.18;100295.03;5051788;27;100303;-89
2021/04/01 01:21:11;;;;;;;61.88;33.55;;;;;;;13.47;54.02;100300.94;5064153;27;97332;-88
2021/04/01 01:23:40;;;;;;;72.22;36.47;;;;;;;13.54;53.80;100299.72;5052157;27;97097;-88
2021/04/01 01:26:05;;;;;;;72.38;37.13;;;;;;;13.46;53.69;100293.09;5072040;27;96979;-88
2021/04/01 01:28:31;;;;;;;67.78;36.15;;;;;;;13.34;54.57;100292.72;5072410;27;98479;-89
2021/04/01 01:30:56;;;;;;;60.58;33.60;;;;;;;13.34;54.08;100290.09;5035068;27;100109;-88
2021/04/01 01:33:23;;;;;;;58.25;31.92;;;;;;;13.31;54.31;100287.59;5033558;27;96811;-88
2021/04/01 01:35:52;;;;;;;65.30;31.48;;;;;;;13.31;54.35;100287.59;5065447;27;97140;-88
2021/04/01 01:38:17;;;;;;;59.50;31.45;;;;;;;13.25;54.30;100282.59;5054377;27;100458;-88
2021/04/01 01:40:43;;;;;;;57.45;32.90;;;;;;;13.29;54.44;100278.03;5055332;27;101421;-88
2021/04/01 01:43:11;;;;;;;57.58;32.40;;;;;;;13.24;54.44;100267.69;5035290;27;96578;-89
2021/04/01 01:45:38;;;;;;;56.72;33.15;;;;;;;13.22;54.44;100266.91;5031882;27;97056;-89
2021/04/01 01:48:04;;;;;;;58.45;33.47;;;;;;;13.20;54.54;100268.75;5071860;27;97882;-82
2021/04/01 01:50:32;;;;;;;65.15;35.28;;;;;;;13.15;54.98;100265.47;5024312;27;101263;-91
2021/04/01 01:52:58;;;;;;;60.17;31.40;;;;;;;13.18;54.45;100264.47;5052542;27;97047;-88
2021/04/01 01:55:24;;;;;;;59.95;32.35;;;;;;;13.09;54.65;100255.22;5050702;27;97305;-87
2021/04/01 01:57:50;;;;;;;53.85;30.75;;;;;;;13.07;54.76;100255.28;5058703;27;98065;-88
2021/04/01 02:00:20;;;;;;;61.42;31.25;;;;;;;13.03;54.58;100250.19;5057390;27;99788;-88
2021/04/01 02:02:53;;;;;;;51.83;29.73;;;;;;;12.99;54.72;100251.28;5059800;27;96656;-89
2021/04/01 02:05:24;;;;;;;55.80;31.45;;;;;;;12.85;55.10;100247.47;5045061;27;97177;-88
2021/04/01 02:07:50;;;;;;;57.60;30.80;;;;;;;12.90;55.58;100252.53;5076244;27;97653;-88
2021/04/01 02:10:21;;;;;;;59.40;32.83;;;;;;;12.95;55.01;100247.94;5055512;27;99439;-89
2021/04/01 02:12:47;;;;;;;61.10;31.30;;;;;;;12.88;55.05;100244.69;5055169;27;96774;-88
2021/04/01 02:15:14;;;;;;;61.78;31.67;;;;;;;12.86;54.90;100241.31;5057220;27;96872;-89
2021/04/01 02:17:39;;;;;;;58.63;30.85;;;;;;;12.82;55.18;100244.97;5055132;27;101314;-89
2021/04/01 02:20:06;;;;;;;69.47;33.08;;;;;;;12.74;55.48;100236.59;5039173;27;100098;-83
2021/04/01 02:22:32;;;;;;;63.88;34.72;;;;;;;12.69;55.49;100238.56;5055651;27;97185;-89
2021/04/01 02:24:57;;;;;;;65.82;33.83;;;;;;;12.71;55.38;100236.69;5071487;27;96819;-88
2021/04/01 02:27:23;;;;;;;68.57;37.13;;;;;;;12.66;55.33;100236.91;5048404;27;98106;-88
2021/04/01 02:29:48;;;;;;;67.93;36.88;;;;;;;12.76;55.26;100236.50;5040675;27;97402;-92
2021/04/01 02:32:15;;;;;;;67.63;35.35;;;;;;;12.68;55.08;100236.81;5054899;27;97066;-87
2021/04/01 02:34:40;;;;;;;62.45;34.05;;;;;;;12.60;55.98;100238.97;5054076;27;96955;-91
2021/04/01 02:37:06;;;;;;;66.57;36.05;;;;;;;12.66;55.29;100238.69;5075116;27;97920;-85
2021/04/01 02:39:32;;;;;;;68.85;35.92;;;;;;;12.66;55.49;100238.69;5064472;27;101643;-91
2021/04/01 02:41:58;;;;;;;64.80;34.22;;;;;;;12.60;55.54;100242.44;5067788;27;96779;-86
2021/04/01 02:44:23;;;;;;;63.33;34.47;;;;;;;12.50;55.54;100235.84;5068924;27;97498;-88
2021/04/01 02:46:49;;;;;;;68.35;35.83;;;;;;;12.52;55.58;100230.53;5041690;27;100362;-88
2021/04/01 02:49:14;;;;;;;67.28;33.13;;;;;;;12.34;56.16;100233.03;5039985;27;100352;-87
2021/04/01 02:51:40;;;;;;;63.67;34.90;;;;;;;12.43;55.70;100235.28;5055199;27;96890;-91
2021/04/01 02:54:05;;;;;;;67.72;35.28;;;;;;;12.45;55.51;100233.44;5037027;27;96952;-85
2021/04/01 02:56:31;;;;;;;74.15;34.88;;;;;;;12.39;55.96;100235.47;5075117;27;98664;-91
2021/04/01 02:58:56;;;;;;;58.25;32.72;;;;;;;12.38;55.74;100234.59;5056104;27;100244;-90
2021/04/01 03:01:23;;;;;;;61.00;31.50;;;;;;;12.35;55.77;100223.34;5053389;27;97337;-91
2021/04/01 03:03:51;;;;;;;54.92;30.13;;;;;;;12.41;55.34;100225.72;5052366;27;97173;-91
2021/04/01 03:06:16;;;;;;;48.30;28.38;;;;;;;12.12;56.85;100226.97;5053357;27;101385;-90
2021/04/01 03:08:42;;;;;;;52.80;27.75;;;;;;;11.99;56.66;100224.00;5052601;27;97994;-91
2021/04/01 03:11:08;;;;;;;51.33;29.30;;;;;;;11.91;57.50;100223.44;5074438;27;96669;-87
2021/04/01 03:13:33;;;;;;;56.00;30.98;;;;;;;12.10;57.04;100228.78;5057108;27;96964;-91
2021/04/01 03:15:59;;;;;;;67.07;32.15;;;;;;;12.13;56.78;100220.78;5054081;27;100709;-90
2021/04/01 03:18:25;;;;;;;66.25;33.00;;;;;;;12.23;56.41;100222.97;5051502;27;99010;-90
2021/04/01 03:20:51;;;;;;;59.47;31.73;;;;;;;12.18;56.59;100221.44;5058191;27;96640;-91
2021/04/01 03:23:17;;;;;;;56.90;30.80;;;;;;;11.97;57.35;100224.03;5055643;27;97019;-90
2021/04/01 03:25:43;;;;;;;60.50;31.80;;;;;;;11.94;57.65;100216.28;5039982;27;101285;-91
2021/04/01 03:28:10;;;;;;;67.82;33.40;;;;;;;12.06;57.00;100217.56;5056264;27;101479;-91
2021/04/01 03:30:38;;;;;;;66.13;32.10;;;;;;;12.21;56.83;100210.78;5053885;27;96786;-90
2021/04/01 03:33:04;;;;;;;63.65;31.30;;;;;;;12.18;56.83;100213.53;5052077;27;97436;-86
2021/04/01 03:35:29;;;;;;;66.55;33.05;;;;;;;12.19;56.70;100204.75;5053292;27;100286;-91
2021/04/01 03:37:56;;;;;;;69.20;33.45;;;;;;;11.91;56.97;100207.66;5056655;27;98294;-91
2021/04/01 03:40:23;;;;;;;72.90;37.50;;;;;;;12.00;57.05;100209.91;5052354;27;97335;-91
2021/04/01 03:42:49;;;;;;;68.57;39.25;;;;;;;12.10;56.76;100208.63;5057096;27;97011;-90
2021/04/01 03:45:15;;;;;;;82.97;38.70;;;;;;;12.14;56.60;100202.31;5056314;27;101179;-91
2021/04/01 03:47:42;;;;;;;77.85;35.53;;;;;;;12.07;56.47;100197.34;5074426;27;98121;-91
2021/04/01 03:50:10;;;;;;;81.18;40.40;;;;;;;12.03;56.59;100203.66;5039508;27;96746;-86
2021/04/01 03:52:37;;;;;;;81.80;40.70;;;;;;;12.08;56.50;100202.56;5041173;27;97114;-92
2021/04/01 03:55:16;;;;;;;81.25;42.83;;;;;;;12.18;56.05;100205.66;5054920;27;97480;-90
2021/04/01 03:57:43;;;;;;;84.18;41.33;;;;;;;11.99;56.67;100208.22;5073657;27;97884;-91
2021/04/01 04:00:17;;;;;;;89.25;42.25;;;;;;;11.91;57.08;100202.41;5053424;27;97118;-85
2021/04/01 04:02:57;;;;;;;83.72;40.22;;;;;;;11.86;57.05;100197.31;5054544;27;97112;-91
2021/04/01 04:13:38;;;;;;;85.88;40.38;;;;;;;11.88;56.54;100192.88;5074214;27;96684;-91
2021/04/01 04:16:03;;;;;;;89.90;40.83;;;;;;;11.74;57.45;100192.53;5040355;27;101595;-91
2021/04/01 04:18:29;;;;;;;79.65;42.10;;;;;;;11.67;57.19;100188.47;5041069;27;101380;-91
2021/04/01 04:20:55;;;;;;;73.63;37.08;;;;;;;11.73;57.46;100183.81;5073837;27;97160;-91
2021/04/01 04:23:21;;;;;;;87.82;41.55;;;;;;;11.75;57.24;100183.72;5054956;27;97166;-91
2021/04/01 04:25:47;;;;;;;82.38;37.47;;;;;;;11.77;56.89;100180.13;5073725;27;98137;-91
2021/04/01 04:28:31;;;;;;;106.38;39.67;;;;;;;11.69;57.59;100174.34;5054055;27;100886;-88
2021/04/01 04:30:57;;;;;;;87.43;37.40;;;;;;;11.65;57.56;100185.88;5053320;27;96621;-91
2021/04/01 04:33:23;;;;;;;90.68;37.20;;;;;;;11.71;57.31;100179.53;5051216;27;97050;-91
2021/04/01 04:35:48;;;;;;;75.93;33.35;;;;;;;11.69;57.12;100183.97;5064916;27;97509;-90
2021/04/01 04:38:14;;;;;;;68.28;31.02;;;;;;;11.76;57.23;100177.56;5052585;27;97393;-87
2021/04/01 04:40:40;;;;;;;65.50;30.55;;;;;;;11.77;56.72;100176.63;5043900;27;97018;-91
2021/04/01 04:43:06;;;;;;;68.30;30.75;;;;;;;11.77;56.79;100174.00;5052993;27;97041;-86
2021/04/01 04:45:32;;;;;;;66.45;31.27;;;;;;;11.78;57.03;100173.09;5056185;27;98485;-91
2021/04/01 04:47:57;;;;;;;69.55;29.15;;;;;;;11.88;56.40;100171.81;5036050;27;98409;-90
2021/04/01 04:50:23;;;;;;;53.65;29.70;;;;;;;11.81;56.84;100174.72;5025786;27;97374;-91
2021/04/01 04:52:48;;;;;;;58.72;29.90;;;;;;;11.74;57.03;100171.50;5053358;27;97136;-91
2021/04/01 04:55:14;;;;;;;60.00;29.85;;;;;;;11.76;57.40;100169.69;5055642;27;97833;-86
2021/04/01 05:05:26;;;;;;;66.35;29.33;;;;;;;12.06;57.55;100174.59;5073335;27;98097;-91
2021/04/01 05:07:51;;;;;;;58.70;29.63;;;;;;;12.14;56.86;100167.25;5053123;27;97600;-90
2021/04/01 05:10:17;;;;;;;74.70;31.45;;;;;;;12.09;57.30;100169.22;5049677;27;97180;-90
2021/04/01 05:12:47;;;;;;;76.88;31.17;;;;;;;12.26;56.61;100163.22;5047523;27;97096;-92
2021/04/01 05:15:13;;;;;;;68.25;30.00;;;;;;;12.40;56.72;100166.13;5060514;27;100459;-90
2021/04/01 05:17:39;;;;;;;71.53;31.25;;;;;;;12.56;56.28;100158.38;5039038;27;101097;-91
2021/04/01 05:20:07;;;;;;;82.38;31.55;;;;;;;12.89;55.36;100153.38;5053645;27;97374;-91
2021/04/01 05:22:52;;;;;;;69.00;30.23;;;;;;;13.11;54.88;100151.44;5052370;27;96919;-91
2021/04/01 05:25:17;;;;;;;74.15;30.88;;;;;;;13.36;54.33;100155.56;5050169;27;101134;-91
2021/04/01 05:27:54;;;;;;;76.60;31.98;;;;;;;13.54;53.71;100143.28;5052636;27;97156;-92
2021/04/01 05:30:20;;;;;;;61.65;29.95;;;;;;;13.76;53.51;100149.22;5050772;27;97057;-92
2021/04/01 05:32:46;;;;;;;77.68;28.58;;;;;;;13.83;52.96;100152.38;5035749;27;97246;-92
2021/04/01 05:35:15;;;;;;;73.03;28.67;;;;;;;14.09;52.68;100150.22;5051739;27;98406;-92
2021/04/01 05:37:41;;;;;;;64.38;30.98;;;;;;;14.35;52.17;100149.72;5052268;27;100909;-93
2021/04/01 05:40:09;;;;;;;81.90;32.55;;;;;;;14.50;51.86;100153.34;5051593;27;96832;-93
2021/04/01 05:42:39;;;;;;;78.63;31.45;;;;;;;14.81;51.75;100162.31;5046589;27;97490;-93
2021/04/01 05:47:38;;;;;;;84.95;29.70;;;;;;;15.30;49.94;100147.25;5055070;27;100936;-93
2021/04/01 06:04:21;;;;;;;62.60;25.52;;;;;;;18.07;44.19;100129.19;5058133;27;97206;-83
2021/04/01 06:09:48;;;;;;;42.30;21.33;;;;;;;21.15;38.37;100124.06;5053758;27;98274;-90
2021/04/01 06:12:13;;;;;;;72.53;23.83;;;;;;;22.43;35.97;100134.78;5055290;27;97102;-91
2021/04/01 06:14:56;;;;;;;64.50;22.35;;;;;;;23.21;34.57;100130.59;5055899;27;96951;-92
2021/04/01 06:17:27;;;;;;;54.35;24.20;;;;;;;23.79;33.53;100127.13;5054528;27;101007;-93
2021/04/01 06:19:59;;;;;;;54.45;25.42;;;;;;;24.34;32.41;100117.44;5054842;27;99726;-93
2021/04/01 06:22:25;;;;;;;45.72;22.90;;;;;;;22.01;34.88;100118.75;5054263;27;97122;-93
2021/04/01 06:24:51;;;;;;;49.10;22.75;;;;;;;22.74;34.59;100120.44;5055614;27;96943;-92
2021/04/01 06:27:32;;;;;;;46.47;22.00;;;;;;;22.17;35.29;100116.50;5054619;27;98494;-93
2021/04/01 06:32:41;;;;;;;56.65;22.00;;;;;;;21.13;37.48;100119.81;5050202;27;96695;-93
2021/04/01 06:35:09;;;;;;;52.08;20.15;;;;;;;21.08;37.47;100114.00;5019719;27;96985;-93
2021/04/01 06:40:18;;;;;;;46.20;22.25;;;;;;;22.92;35.80;100115.31;5072268;27;98343;-90
2021/04/01 06:42:54;;;;;;;39.88;18.48;;;;;;;23.26;34.95;100113.13;5038310;27;96769;-86
2021/04/01 06:45:23;;;;;;;37.70;17.50;;;;;;;24.03;33.80;100106.09;5035737;27;96820;-91
2021/04/01 06:47:56;;;;;;;36.83;16.83;;;;;;;24.15;33.46;100104.94;5041561;27;98582;-89
2021/04/01 06:50:28;;;;;;;36.20;16.02;;;;;;;23.28;35.22;100107.66;5050144;27;101112;-89
2021/04/01 06:55:59;;;;;;;32.40;14.20;;;;;;;21.79;37.03;100106.38;5009959;27;97342;-89
2021/04/01 06:58:42;;;;;;;39.78;16.58;;;;;;;21.53;37.45;100105.88;5035114;27;100979;-89
2021/04/01 07:03:40;;;;;;;39.22;15.18;;;;;;;21.33;38.09;100096.81;5069971;27;96820;-91
2021/04/01 07:11:12;;;;;;;29.83;13.82;;;;;;;22.09;37.39;100103.75;5069989;27;98402;-88
2021/04/01 07:13:48;;;;;;;39.83;14.40;;;;;;;21.98;37.48;100103.81;5054595;27;96975;-89
2021/04/01 07:16:41;;;;;;;40.75;16.50;;;;;;;22.23;37.25;100105.28;5055243;27;97126;-82
2021/04/01 07:48:35;;;;;;;24.50;14.15;;;;;;;25.21;31.58;100077.81;5070387;27;97366;-89
2021/04/01 07:51:01;;;;;;;27.02;13.30;;;;;;;26.03;31.04;100081.22;5054238;27;101520;-91
2021/04/01 07:53:27;;;;;;;31.58;14.18;;;;;;;25.66;31.43;100079.59;5053064;27;97331;-89
2021/04/01 07:56:02;;;;;;;40.80;14.90;;;;;;;25.57;31.98;100086.72;5068822;27;97436;-90
2021/04/01 08:06:28;;;;;;;20.63;12.60;;;;;;;24.06;33.43;100073.66;5055411;27;97370;-89
2021/04/01 08:08:58;;;;;;;27.58;13.70;;;;;;;23.82;33.99;100074.09;5034867;27;97231;-88
2021/04/01 08:11:32;;;;;;;26.17;13.70;;;;;;;24.04;33.83;100078.31;5030626;27;100510;-91
2021/04/01 08:16:51;;;;;;;29.83;13.98;;;;;;;23.76;34.05;100076.50;5062657;27;97258;-89
2021/04/01 08:19:20;;;;;;;45.35;13.40;;;;;;;24.48;33.24;100083.97;5043751;27;96994;-90
2021/04/01 08:21:48;;;;;;;28.38;15.27;;;;;;;24.20;33.24;100080.34;5060127;27;97655;-90
2021/04/01 08:24:22;;;;;;;27.58;13.70;;;;;;;24.07;33.13;100086.06;5043432;27;100757;-81
2021/04/01 08:35:01;;;;;;;29.02;13.82;;;;;;;24.55;32.06;100074.38;5058903;27;100254;-91
2021/04/01 08:37:33;;;;;;;20.95;13.38;;;;;;;26.10;30.32;100069.69;5045998;27;97225;-85
2021/04/01 08:40:00;;;;;;;25.92;12.82;;;;;;;27.72;28.17;100059.59;5032360;27;97605;-89
2021/04/01 08:43:01;;;;;;;28.48;15.20;;;;;;;27.72;28.28;100061.44;5042523;27;100167;-86
2021/04/01 08:46:08;;;;;;;33.17;15.20;;;;;;;28.31;27.13;100064.75;4990659;27;100975;-85
2021/04/01 08:48:38;;;;;;;24.45;14.68;;;;;;;28.35;27.06;100060.69;5026748;27;98325;-91
2021/04/01 08:51:07;;;;;;;22.83;14.48;;;;;;;27.94;27.25;100051.84;5050750;27;97493;-89
2021/04/01 08:53:59;;;;;;;20.77;13.90;;;;;;;27.82;27.09;100061.31;5031225;27;101252;-88
2021/04/01 08:56:53;;;;;;;23.73;14.73;;;;;;;27.80;27.47;100060.63;5058162;27;97425;-89
2021/04/01 08:59:26;;;;;;;33.90;15.18;;;;;;;28.58;26.77;100055.41;5049736;27;96754;-85
2021/04/01 09:01:55;;;;;;;22.48;14.95;;;;;;;27.94;27.23;100049.16;5056383;27;96975;-87
2021/04/01 09:04:33;;;;;;;22.20;14.20;;;;;;;26.93;28.59;100047.50;5078841;27;98792;-89
2021/04/01 09:07:17;;;;;;;22.40;12.90;;;;;;;26.38;29.70;100051.53;5029666;27;101943;-88
2021/04/01 09:09:47;;;;;;;35.55;16.60;;;;;;;25.99;29.49;100055.66;5052139;27;96780;-87
2021/04/01 09:12:22;;;;;;;31.63;14.80;;;;;;;26.50;29.31;100051.25;5049300;27;97032;-86
2021/04/01 09:14:59;;;;;;;27.20;14.68;;;;;;;25.69;29.24;100042.47;5016931;27;101318;-85
2021/04/01 09:17:32;;;;;;;33.03;14.98;;;;;;;25.01;30.41;100045.69;5035495;27;97992;-85
2021/04/01 09:19:58;;;;;;;28.55;16.13;;;;;;;24.78;30.82;100047.97;5062300;27;97168;-86
2021/04/01 09:22:29;;;;;;;28.75;15.27;;;;;;;24.55;31.20;100046.66;5053133;27;98498;-85
2021/04/01 09:25:00;;;;;;;26.80;15.60;;;;;;;24.28;31.72;100045.63;5020760;27;101545;-79
2021/04/01 09:27:27;;;;;;;38.03;16.85;;;;;;;24.10;32.18;100044.72;5045071;27;97989;-79
2021/04/01 09:30:06;;;;;;;28.40;14.70;;;;;;;24.12;34.74;100040.88;5064023;27;97285;-89
2021/04/01 09:32:32;;;;;;;25.05;13.75;;;;;;;24.23;33.72;100041.69;5041490;27;97079;-90
2021/04/01 09:34:59;;;;;;;24.20;15.43;;;;;;;24.25;32.98;100048.59;5068863;27;97951;-86
2021/04/01 09:37:26;;;;;;;25.30;16.20;;;;;;;24.21;32.85;100041.00;5068125;27;98030;-86
2021/04/01 09:39:55;;;;;;;35.13;15.00;;;;;;;24.02;33.40;100034.69;5040228;27;97791;-88
2021/04/01 09:42:21;;;;;;;30.67;15.57;;;;;;;23.94;33.26;100034.59;5053709;27;97379;-81
2021/04/01 09:44:51;;;;;;;28.83;15.63;;;;;;;23.61;33.27;100028.69;5053276;27;101286;-87
2021/04/01 09:47:44;;;;;;;28.90;15.77;;;;;;;23.35;34.12;100024.91;5054807;27;97821;-81
2021/04/01 09:50:11;;;;;;;27.58;15.82;;;;;;;23.32;34.36;100027.88;5051702;27;97075;-87
2021/04/01 09:52:39;;;;;;;30.20;16.35;;;;;;;23.31;34.55;100020.84;5042012;27;96904;-87
2021/04/01 09:55:13;;;;;;;23.55;16.40;;;;;;;23.24;34.90;100025.88;5052784;27;98496;-88
2021/04/01 09:57:54;;;;;;;27.27;15.95;;;;;;;23.02;34.86;100035.06;5032958;27;101366;-88
2021/04/01 10:00:31;;;;;;;40.13;17.23;;;;;;;22.86;34.37;100029.34;5073230;27;97205;-80
2021/04/01 10:03:07;;;;;;;29.88;16.25;;;;;;;22.71;34.43;100028.91;5072296;27;97186;-81
2021/04/01 10:05:39;;;;;;;37.50;18.75;;;;;;;22.77;34.86;100031.84;5077231;27;97234;-88
2021/04/01 10:08:08;;;;;;;19.58;12.68;;;;;;;22.83;36.21;100030.47;5038703;27;99989;-79
2021/04/01 10:10:43;;;;;;;22.05;14.30;;;;;;;23.08;36.02;100018.44;5032914;27;97256;-81
2021/04/01 10:13:26;;;;;;;32.63;15.02;;;;;;;23.24;35.58;100017.84;5044609;27;97171;-81
2021/04/01 10:15:53;;;;;;;31.05;13.88;;;;;;;23.27;35.21;100014.91;5051196;27;101731;-83
2021/04/01 10:18:23;;;;;;;24.42;13.52;;;;;;;23.27;34.97;100026.47;5053597;27;98061;-77
2021/04/01 10:20:57;;;;;;;24.85;13.73;;;;;;;23.26;34.48;100022.09;5051904;27;97150;-77
2021/04/01 10:23:23;;;;;;;25.33;15.60;;;;;;;23.30;34.32;100022.69;5052714;27;96986;-80
2021/04/01 10:25:56;;;;;;;26.02;15.18;;;;;;;23.09;34.11;100025.47;5051978;27;101418;-79
2021/04/01 10:28:37;;;;;;;23.63;15.35;;;;;;;22.97;34.61;100021.22;5053040;27;101571;-76
2021/04/01 10:31:28;;;;;;;;;;;;;;;22.85;35.08;100016.97;5056183;27;96814;-81
2021/04/01 10:34:06;;;;;;;35.53;17.13;;;;;;;22.94;35.13;100013.44;5059905;27;97189;-83
2021/04/01 10:36:32;;;;;;;28.08;14.75;;;;;;;22.98;35.62;100013.06;5073329;27;97472;-87
2021/04/01 10:39:08;;;;;;;26.67;16.20;;;;;;;23.15;34.95;100002.66;5052670;27;98464;-79
2021/04/01 10:41:47;;;;;;;23.27;13.38;;;;;;;23.24;34.75;100001.78;5040579;27;97247;-81
2021/04/01 10:44:15;;;;;;;27.50;13.80;;;;;;;23.32;34.30;99993.06;5075149;27;97115;-84
2021/04/01 10:46:49;;;;;;;27.05;16.17;;;;;;;23.40;34.15;99990.53;5073444;27;98243;-79
2021/04/01 10:49:17;;;;;;;27.33;15.07;;;;;;;23.38;34.19;99993.34;5038080;27;101507;-77
2021/04/01 10:52:03;;;;;;;31.70;16.70;;;;;;;23.38;33.86;99989.81;5052562;27;96733;-80
2021/04/01 10:54:43;;;;;;;27.10;13.88;;;;;;;23.42;34.36;99988.56;5052525;27;97509;-79
2021/04/01 10:57:26;;;;;;;26.42;15.27;;;;;;;23.35;34.45;99990.09;5036785;27;101516;-79
2021/04/01 10:59:51;;;;;;;26.88;14.88;;;;;;;23.55;34.12;99977.53;5037790;27;101350;-80
2021/04/01 11:02:24;;;;;;;30.20;17.15;;;;;;;23.62;33.83;99978.63;5038204;27;96988;-80
2021/04/01 11:05:16;;;;;;;29.85;16.92;;;;;;;23.59;33.86;99986.97;5037364;27;96838;-80
2021/04/01 11:07:47;;;;;;;;;;;;;;;23.55;34.27;99983.72;5037017;27;101569;-79
2021/04/01 11:10:28;;;;;;;26.17;14.25;;;;;;;23.71;34.06;99975.13;5038267;27;97502;-79
2021/04/01 11:12:56;;;;;;;29.50;16.52;;;;;;;23.60;34.04;99988.66;5037300;27;97237;-79
2021/04/01 11:15:24;;;;;;;27.52;16.45;;;;;;;23.80;33.63;99992.19;5055385;27;97062;-73
2021/04/01 11:17:56;;;;;;;27.33;15.20;;;;;;;23.87;33.61;99979.88;5036209;27;101554;-79
2021/04/01 11:20:23;;;;;;;27.92;16.92;;;;;;;23.92;33.41;99989.16;5036834;27;100611;-73
2021/04/01 11:23:02;;;;;;;24.40;14.63;;;;;;;24.04;33.22;99991.69;5053977;27;96615;-78
2021/04/01 11:25:28;;;;;;;27.67;15.93;;;;;;;24.08;33.47;99982.34;5036791;27;96603;-78
2021/04/01 11:27:55;;;;;;;35.20;17.55;;;;;;;24.08;33.80;99983.19;5053844;27;97293;-78
2021/04/01 11:30:21;;;;;;;30.67;15.15;;;;;;;24.01;33.51;99976.72;5036566;27;101440;-78
2021/04/01 11:32:54;;;;;;;24.48;15.57;;;;;;;24.00;33.44;99980.41;5053114;27;96599;-72
2021/04/01 11:35:23;;;;;;;24.88;14.77;;;;;;;23.98;33.21;99984.22;5054261;27;96873;-73
2021/04/01 11:37:51;;;;;;;22.95;15.93;;;;;;;23.95;33.15;99977.31;5053261;27;98476;-72
2021/04/01 11:40:17;;;;;;;29.08;15.45;;;;;;;23.91;32.86;99978.59;5036202;27;97910;-72
2021/04/01 11:42:59;;;;;;;25.60;15.38;;;;;;;23.88;33.03;99979.75;5052846;27;96602;-72
2021/04/01 11:45:33;;;;;;;25.35;14.68;;;;;;;23.85;33.21;99987.22;5036836;27;96983;-72
2021/04/01 11:47:59;;;;;;;23.20;14.90;;;;;;;23.73;33.28;99979.34;5036197;27;100902;-72
2021/04/01 11:50:26;;;;;;;31.20;17.10;;;;;;;23.60;33.67;99991.34;5070191;27;101244;-73
2021/04/01 11:52:59;;;;;;;36.10;18.15;;;;;;;23.45;34.11;99977.56;5053451;27;96533;-77
2021/04/01 11:55:26;;;;;;;31.10;17.63;;;;;;;23.38;34.06;99989.81;5053330;27;97053;-74
2021/04/01 11:57:52;;;;;;;32.65;18.38;;;;;;;23.22;35.32;99983.22;5035613;27;98147;-76
2021/04/01 12:00:24;;;;;;;29.35;18.27;;;;;;;23.03;35.37;99997.41;5035799;27;101507;-91
2021/04/01 12:03:07;;;;;;;34.60;18.80;;;;;;;23.05;35.21;99987.44;5036059;27;97288;-82
2021/04/01 12:05:38;;;;;;;31.45;18.23;;;;;;;23.02;35.48;99977.00;5053145;27;96666;-82
2021/04/01 12:08:04;;;;;;;37.83;19.08;;;;;;;23.15;35.12;99975.88;5036616;27;101509;-83
2021/04/01 12:10:30;;;;;;;38.45;19.50;;;;;;;23.01;35.84;99982.53;5035528;27;100915;-82
2021/04/01 12:12:56;;;;;;;34.97;18.95;;;;;;;23.08;35.02;99974.75;5036441;27;96897;-83
2021/04/01 12:15:41;;;;;;;36.95;19.33;;;;;;;22.94;34.82;99986.69;5036757;27;96910;-82
2021/04/01 12:18:08;;;;;;;28.15;18.05;;;;;;;22.81;35.49;99977.09;5036125;27;100855;-83
2021/04/01 12:20:36;;;;;;;36.35;17.90;;;;;;;22.71;35.92;99975.41;5052288;27;99913;-82
2021/04/01 12:23:21;;;;;;;26.67;17.73;;;;;;;22.77;35.76;99972.16;5053080;27;96895;-82
2021/04/01 12:25:48;;;;;;;27.35;18.10;;;;;;;22.68;35.74;99981.03;5035446;27;97361;-82
2021/04/01 12:28:21;;;;;;;40.90;20.10;;;;;;;22.71;35.63;99976.22;5035970;27;101415;-81
2021/04/01 12:30:49;;;;;;;33.85;19.30;;;;;;;22.70;36.28;99971.88;5035211;27;101397;-83
2021/04/01 12:33:20;;;;;;;34.80;19.20;;;;;;;22.68;36.06;99967.66;5036987;27;96562;-83
2021/04/01 12:35:57;;;;;;;38.50;19.67;;;;;;;22.70;36.14;99971.03;5052995;27;96644;-84
2021/04/01 12:38:47;;;;;;;31.13;17.48;;;;;;;22.80;36.17;99959.34;5052611;27;98376;-84
2021/04/01 12:41:30;;;;;;;27.23;18.30;;;;;;;22.72;36.04;99959.22;5074284;27;98358;-83
2021/04/01 12:43:56;;;;;;;27.70;16.60;;;;;;;22.82;35.50;99945.84;5056581;27;96632;-85
2021/04/01 12:46:23;;;;;;;31.98;16.95;;;;;;;22.86;33.82;99949.91;5056768;27;96524;-84
2021/04/01 12:48:56;;;;;;;31.38;17.75;;;;;;;22.83;31.97;99942.16;5054836;27;100928;-84
2021/04/01 12:51:24;;;;;;;30.17;18.05;;;;;;;22.90;32.19;99956.69;5055965;27;101146;-84
2021/04/01 12:54:05;;;;;;;26.50;17.67;;;;;;;22.90;32.49;99958.53;5055777;27;96576;-84
2021/04/01 12:56:50;;;;;;;28.30;18.42;;;;;;;22.79;32.60;99960.34;5055167;27;97124;-78
2021/04/01 13:01:48;;;;;;;34.42;18.83;;;;;;;22.66;31.99;99969.59;5055548;27;100859;-79
2021/04/01 13:04:18;;;;;;;36.35;18.92;;;;;;;22.59;32.40;99959.47;5042760;27;96785;-76
2021/04/01 13:09:28;;;;;;;36.17;18.40;;;;;;;22.49;31.39;99971.16;5055730;27;98034;-79